createdAt,value
2023-05-21T00:02:18.508Z,11.50
2023-05-21T00:04:46.029Z,11.50
2023-05-21T00:07:13.452Z,11.50
2023-05-21T00:09:40.433Z,11.40
2023-05-21T00:12:08.778Z,11.60
2023-05-21T00:14:36.087Z,11.60
2023-05-21T00:17:03.171Z,11.50
2023-05-21T00:19:32.721Z,11.50
2023-05-21T00:22:02.344Z,11.50
2023-05-21T00:24:29.592Z,11.50
2023-05-21T00:26:56.644Z,11.40
2023-05-21T00:29:23.945Z,11.50
2023-05-21T00:31:52.269Z,11.50
2023-05-21T00:34:19.610Z,11.50
2023-05-21T00:36:46.816Z,11.40
2023-05-21T00:39:14.274Z,11.30
2023-05-21T00:41:43.072Z,11.40
2023-05-21T00:44:10.091Z,11.40
2023-05-21T00:46:37.121Z,11.40
2023-05-21T00:49:04.426Z,11.30
2023-05-21T00:51:31.661Z,11.30
2023-05-21T00:53:58.864Z,11.30
2023-05-21T00:56:27.240Z,11.40
2023-05-21T00:58:57.514Z,11.50
2023-05-21T01:01:26.220Z,11.40
2023-05-21T01:03:57.700Z,11.30
2023-05-21T01:06:24.660Z,11.30
2023-05-21T01:08:51.578Z,11.30
2023-05-21T01:11:19.776Z,11.30
2023-05-21T01:13:48.154Z,11.40
2023-05-21T01:16:15.301Z,11.40
2023-05-21T01:18:45.324Z,11.30
2023-05-21T01:21:12.442Z,11.30
2023-05-21T01:23:39.578Z,11.20
2023-05-21T01:26:07.303Z,11.20
2023-05-21T01:28:34.740Z,11.20
2023-05-21T01:31:12.986Z,11.20
2023-05-21T01:33:49.047Z,11.30
2023-05-21T01:36:24.368Z,11.30
2023-05-21T01:39:07.714Z,11.40
2023-05-21T01:41:40.440Z,11.40
2023-05-21T01:44:08.751Z,11.40
2023-05-21T01:46:37.024Z,11.40
2023-05-21T01:49:06.372Z,11.30
2023-05-21T01:51:34.281Z,11.30
2023-05-21T01:54:02.283Z,11.30
2023-05-21T01:56:29.301Z,11.30
2023-05-21T01:58:59.427Z,11.30
2023-05-21T02:01:27.495Z,11.40
2023-05-21T02:03:54.661Z,11.50
2023-05-21T02:06:21.619Z,11.50
2023-05-21T02:08:48.533Z,11.40
2023-05-21T02:11:15.578Z,11.40
2023-05-21T02:13:42.874Z,11.30
2023-05-21T02:16:14.859Z,11.30
2023-05-21T02:18:43.691Z,11.30
2023-05-21T02:21:13.902Z,11.30
2023-05-21T02:23:41.768Z,11.30
2023-05-21T02:26:08.756Z,11.30
2023-05-21T02:28:36.403Z,11.30
2023-05-21T02:31:03.950Z,11.20
2023-05-21T02:33:30.976Z,11.20
2023-05-21T02:35:57.954Z,11.20
2023-05-21T02:38:25.909Z,11.10
2023-05-21T02:40:53.141Z,11.10
2023-05-21T02:43:20.210Z,11.10
2023-05-21T02:45:47.679Z,11.00
2023-05-21T02:48:14.914Z,11.10
2023-05-21T02:50:41.863Z,11.10
2023-05-21T02:53:08.829Z,11.10
2023-05-21T02:55:36.099Z,11.10
2023-05-21T02:58:03.251Z,11.10
2023-05-21T03:00:30.157Z,11.10
2023-05-21T03:02:57.144Z,11.10
2023-05-21T03:05:24.478Z,11.10
2023-05-21T03:07:51.508Z,11.10
2023-05-21T03:10:18.436Z,11.10
2023-05-21T03:12:45.648Z,11.20
2023-05-21T03:15:14.889Z,11.20
2023-05-21T03:17:44.961Z,11.20
2023-05-21T03:20:16.392Z,11.20
2023-05-21T03:22:45.034Z,11.20
2023-05-21T03:25:12.825Z,11.20
2023-05-21T03:27:40.080Z,11.30
2023-05-21T03:30:07.548Z,11.20
2023-05-21T03:32:37.816Z,11.30
2023-05-21T03:35:05.867Z,11.20
2023-05-21T03:37:32.794Z,11.20
2023-05-21T03:39:59.673Z,11.20
2023-05-21T03:42:26.573Z,11.40
2023-05-21T03:44:53.546Z,11.40
2023-05-21T03:47:20.496Z,11.40
2023-05-21T03:49:47.444Z,11.50
2023-05-21T03:52:14.380Z,11.50
2023-05-21T03:54:41.272Z,11.60
2023-05-21T03:59:35.690Z,11.60
2023-05-21T04:02:03.007Z,11.60
2023-05-21T04:04:30.043Z,11.60
2023-05-21T04:06:56.961Z,11.60
2023-05-21T04:09:23.946Z,11.60
2023-05-21T04:11:50.968Z,11.60
2023-05-21T04:14:17.898Z,11.60
2023-05-21T04:16:44.971Z,11.70
2023-05-21T04:21:39.411Z,11.70
2023-05-21T04:24:06.540Z,11.70
2023-05-21T04:26:36.454Z,11.70
2023-05-21T04:29:03.668Z,11.80
2023-05-21T04:31:33.821Z,11.90
2023-05-21T04:34:00.751Z,11.90
2023-05-21T04:36:28.994Z,11.90
2023-05-21T04:38:56.180Z,12.00
2023-05-21T04:41:23.268Z,12.10
2023-05-21T04:43:55.032Z,12.20
2023-05-21T04:46:25.551Z,12.20
2023-05-21T04:48:55.037Z,12.30
2023-05-21T04:51:24.942Z,12.30
2023-05-21T04:53:52.064Z,12.40
2023-05-21T04:56:19.160Z,12.50
2023-05-21T04:58:47.966Z,12.50
2023-05-21T05:01:15.987Z,12.50
2023-05-21T05:03:42.999Z,12.50
2023-05-21T05:06:09.963Z,12.60
2023-05-21T05:08:36.936Z,12.70
2023-05-21T05:11:03.876Z,12.70
2023-05-21T05:13:31.028Z,12.80
2023-05-21T05:15:57.965Z,12.90
2023-05-21T05:18:24.924Z,12.90
2023-05-21T05:20:51.964Z,12.90
2023-05-21T05:23:19.185Z,13.10
2023-05-21T05:25:46.401Z,13.20
2023-05-21T05:28:13.314Z,13.30
2023-05-21T05:30:40.236Z,13.50
2023-05-21T05:33:07.194Z,13.50
2023-05-21T05:35:34.395Z,13.50
2023-05-21T05:38:01.524Z,13.50
2023-05-21T05:40:28.492Z,13.60
2023-05-21T05:42:55.452Z,13.90
2023-05-21T05:45:22.370Z,14.10
2023-05-21T05:47:49.282Z,14.10
2023-05-21T05:50:16.168Z,14.20
2023-05-21T05:52:43.059Z,14.40
2023-05-21T05:55:11.931Z,14.40
2023-05-21T05:57:38.823Z,14.30
2023-05-21T06:00:06.448Z,14.40
2023-05-21T06:02:33.368Z,14.40
2023-05-21T06:05:00.462Z,14.60
2023-05-21T06:07:27.343Z,14.70
2023-05-21T06:09:54.277Z,14.80
2023-05-21T06:12:21.191Z,14.80
2023-05-21T06:14:49.089Z,14.90
2023-05-21T06:19:45.191Z,14.80
2023-05-21T06:22:12.070Z,14.80
2023-05-21T06:24:38.949Z,14.90
2023-05-21T06:27:06.181Z,15.00
2023-05-21T06:29:33.179Z,14.90
2023-05-21T06:32:00.039Z,14.80
2023-05-21T06:34:27.237Z,14.90
2023-05-21T06:36:54.363Z,15.20
2023-05-21T06:39:21.269Z,15.30
2023-05-21T06:41:48.176Z,15.30
2023-05-21T06:44:15.800Z,15.40
2023-05-21T06:46:43.170Z,15.50
2023-05-21T06:49:14.477Z,15.50
2023-05-21T06:51:41.490Z,15.60
2023-05-21T06:54:08.435Z,15.70
2023-05-21T06:56:36.565Z,15.80
2023-05-21T06:59:03.544Z,15.70
2023-05-21T07:01:30.878Z,15.80
2023-05-21T07:03:57.897Z,16.00
2023-05-21T07:06:24.784Z,16.10
2023-05-21T07:08:51.814Z,16.00
2023-05-21T07:11:18.768Z,16.00
2023-05-21T07:13:45.664Z,15.90
2023-05-21T07:16:12.695Z,15.90
2023-05-21T07:18:39.718Z,16.00
2023-05-21T07:21:06.652Z,16.20
2023-05-21T07:23:33.553Z,16.40
2023-05-21T07:26:00.506Z,16.60
2023-05-21T07:28:27.539Z,16.70
2023-05-21T07:30:54.839Z,16.90
2023-05-21T07:33:22.933Z,17.10
2023-05-21T07:35:49.902Z,17.40
2023-05-21T07:38:17.610Z,17.40
2023-05-21T07:40:44.526Z,17.30
2023-05-21T07:43:12.233Z,17.30
2023-05-21T07:45:39.274Z,17.30
2023-05-21T07:48:06.647Z,17.50
2023-05-21T07:50:33.590Z,17.80
2023-05-21T07:53:00.715Z,18.30
2023-05-21T07:55:27.818Z,18.60
2023-05-21T07:57:54.806Z,18.50
2023-05-21T08:00:24.378Z,18.50
2023-05-21T08:02:52.443Z,18.60
2023-05-21T08:05:20.908Z,18.30
2023-05-21T08:07:47.913Z,18.20
2023-05-21T08:12:45.388Z,18.70
2023-05-21T08:15:12.300Z,19.30
2023-05-21T08:17:39.275Z,19.70
2023-05-21T08:20:07.029Z,19.80
2023-05-21T08:22:33.997Z,20.10
2023-05-21T08:25:01.003Z,20.30
2023-05-21T08:27:27.996Z,20.70
2023-05-21T08:29:54.949Z,20.90
2023-05-21T08:32:21.859Z,21.00
2023-05-21T08:37:18.332Z,20.90
2023-05-21T08:39:45.351Z,20.60
2023-05-21T08:42:36.574Z,20.20
2023-05-21T08:45:07.101Z,20.10
2023-05-21T08:47:36.991Z,20.00
2023-05-21T08:50:12.472Z,19.80
2023-05-21T08:52:39.579Z,20.00
2023-05-21T08:55:07.457Z,19.90
2023-05-21T08:57:34.892Z,20.10
2023-05-21T09:00:04.660Z,20.30
2023-05-21T09:02:34.428Z,20.50
2023-05-21T09:05:03.441Z,20.60
2023-05-21T09:07:31.788Z,20.60
2023-05-21T09:10:05.688Z,20.60
2023-05-21T09:12:33.078Z,20.30
2023-05-21T09:15:01.348Z,20.40
2023-05-21T09:17:28.494Z,20.30
2023-05-21T09:20:14.496Z,20.30
2023-05-21T09:22:44.355Z,20.30
2023-05-21T09:25:13.130Z,20.40
2023-05-21T09:27:40.379Z,20.40
2023-05-21T09:30:27.813Z,20.40
2023-05-21T09:32:58.521Z,20.30
2023-05-21T09:35:25.845Z,20.30
2023-05-21T09:37:54.043Z,20.30
2023-05-21T09:40:22.755Z,20.30
2023-05-21T09:42:49.648Z,20.20
2023-05-21T09:45:25.125Z,20.30
2023-05-21T09:47:53.763Z,20.50
2023-05-21T09:50:31.669Z,20.40
2023-05-21T09:52:58.650Z,20.50
2023-05-21T09:55:27.089Z,20.50
2023-05-21T09:57:53.970Z,20.70
2023-05-21T10:00:27.412Z,20.90
2023-05-21T10:02:55.870Z,20.90
2023-05-21T10:05:30.088Z,21.00
2023-05-21T10:08:02.429Z,20.90
2023-05-21T10:10:31.045Z,21.60
2023-05-21T10:13:06.972Z,22.10
2023-05-21T10:15:42.551Z,22.30
2023-05-21T10:18:12.397Z,22.70
2023-05-21T10:20:40.437Z,22.90
2023-05-21T10:23:08.197Z,23.30
2023-05-21T10:25:36.246Z,22.70
2023-05-21T10:28:03.524Z,22.60
2023-05-21T10:30:31.299Z,22.50
2023-05-21T10:32:59.783Z,22.20
2023-05-21T10:35:27.632Z,22.00
2023-05-21T10:37:57.100Z,21.80
2023-05-21T10:40:24.064Z,21.60
2023-05-21T10:43:03.406Z,21.30
2023-05-21T10:46:12.753Z,21.30
2023-05-21T10:49:01.560Z,21.50
2023-05-21T10:52:16.122Z,21.70
2023-05-21T10:55:27.668Z,21.60
2023-05-21T10:58:09.819Z,21.60
2023-05-21T11:00:37.318Z,21.50
2023-05-21T11:03:05.445Z,21.40
2023-05-21T11:05:41.396Z,21.40
2023-05-21T11:08:21.286Z,21.30
2023-05-21T11:10:53.255Z,21.20
2023-05-21T11:13:21.865Z,21.20
2023-05-21T11:15:57.950Z,21.20
2023-05-21T11:18:30.625Z,21.30
2023-05-21T11:21:10.177Z,21.10
2023-05-21T11:23:51.933Z,21.10
2023-05-21T11:26:21.768Z,21.30
2023-05-21T11:29:06.861Z,21.30
2023-05-21T11:31:38.576Z,21.80
2023-05-21T11:34:15.597Z,21.90
2023-05-21T11:36:45.249Z,21.80
2023-05-21T11:39:22.757Z,22.10
2023-05-21T11:41:58.480Z,22.30
2023-05-21T11:44:43.880Z,22.70
2023-05-21T11:47:12.777Z,22.90
2023-05-21T11:49:39.860Z,22.90
2023-05-21T11:52:08.560Z,22.70
2023-05-21T11:54:46.384Z,22.70
2023-05-21T11:57:16.721Z,22.80
2023-05-21T11:59:43.665Z,22.30
2023-05-21T12:02:16.286Z,22.50
2023-05-21T12:04:43.646Z,22.60
2023-05-21T12:07:13.331Z,22.80
2023-05-21T12:09:47.198Z,22.90
2023-05-21T12:12:26.063Z,22.90
2023-05-21T12:14:54.596Z,23.10
2023-05-21T12:17:23.655Z,23.20
2023-05-21T12:19:55.266Z,23.30
2023-05-21T12:22:24.597Z,23.30
2023-05-21T12:24:53.819Z,23.40
2023-05-21T12:27:22.186Z,23.80
2023-05-21T12:29:51.802Z,23.70
2023-05-21T12:32:21.039Z,23.50
2023-05-21T12:34:49.780Z,23.30
2023-05-21T12:37:22.419Z,23.20
2023-05-21T12:39:51.807Z,23.20
2023-05-21T12:42:35.700Z,23.10
2023-05-21T12:45:11.877Z,22.90
2023-05-21T12:47:38.854Z,23.00
2023-05-21T12:50:12.313Z,23.00
2023-05-21T12:52:43.130Z,23.30
2023-05-21T12:55:13.591Z,23.20
2023-05-21T12:57:40.549Z,23.40
2023-05-21T13:00:08.189Z,23.40
2023-05-21T13:02:39.867Z,23.50
2023-05-21T13:05:15.636Z,23.10
2023-05-21T13:07:44.120Z,23.00
2023-05-21T13:10:12.300Z,22.70
2023-05-21T13:12:39.979Z,22.90
2023-05-21T13:15:08.540Z,23.30
2023-05-21T13:17:35.595Z,23.50
2023-05-21T13:20:16.549Z,23.50
2023-05-21T13:22:47.096Z,23.60
2023-05-21T13:25:16.457Z,23.40
2023-05-21T13:27:43.973Z,23.70
2023-05-21T13:30:11.871Z,23.60
2023-05-21T13:32:39.819Z,23.30
2023-05-21T13:35:07.742Z,23.40
2023-05-21T13:37:38.575Z,23.40
2023-05-21T13:40:07.263Z,23.70
2023-05-21T13:42:35.481Z,23.70
2023-05-21T13:45:02.559Z,23.60
2023-05-21T13:47:29.595Z,23.30
2023-05-21T13:49:56.494Z,23.30
2023-05-21T13:52:23.384Z,23.50
2023-05-21T13:54:50.379Z,23.70
2023-05-21T13:57:17.365Z,23.80
2023-05-21T13:59:44.432Z,23.60
2023-05-21T14:02:11.518Z,23.40
2023-05-21T14:04:39.539Z,23.30
2023-05-21T14:07:07.057Z,23.40
2023-05-21T14:09:34.457Z,23.60
2023-05-21T14:12:01.622Z,23.70
2023-05-21T14:14:28.684Z,23.80
2023-05-21T14:16:55.765Z,23.80
2023-05-21T14:19:22.876Z,23.50
2023-05-21T14:21:52.812Z,23.50
2023-05-21T14:24:19.976Z,23.60
2023-05-21T14:26:46.977Z,23.60
2023-05-21T14:29:14.800Z,23.60
2023-05-21T14:31:41.860Z,23.70
2023-05-21T14:34:08.886Z,23.60
2023-05-21T14:36:36.505Z,23.40
2023-05-21T14:39:03.973Z,23.30
2023-05-21T14:41:31.168Z,23.40
2023-05-21T14:43:58.122Z,23.50
2023-05-21T14:46:25.175Z,23.60
2023-05-21T14:48:52.875Z,23.60
2023-05-21T14:51:20.330Z,23.60
2023-05-21T14:53:47.299Z,23.50
2023-05-21T14:56:14.181Z,23.50
2023-05-21T14:58:41.108Z,23.50
2023-05-21T15:01:08.227Z,23.40
2023-05-21T15:03:35.422Z,23.30
2023-05-21T15:06:02.514Z,23.20
2023-05-21T15:08:29.434Z,23.20
2023-05-21T15:10:57.235Z,23.30
2023-05-21T15:13:24.213Z,23.40
2023-05-21T15:15:51.241Z,23.20
2023-05-21T15:18:18.268Z,23.00
2023-05-21T15:20:45.248Z,22.80
2023-05-21T15:23:17.305Z,22.90
2023-05-21T15:25:45.713Z,22.70
2023-05-21T15:28:13.103Z,22.60
2023-05-21T15:30:40.348Z,22.60
2023-05-21T15:33:07.309Z,22.60
2023-05-21T15:35:36.360Z,22.70
2023-05-21T15:38:03.870Z,22.60
2023-05-21T15:40:32.080Z,22.50
2023-05-21T15:42:59.138Z,22.60
2023-05-21T15:45:26.644Z,22.60
2023-05-21T15:47:53.755Z,22.60
2023-05-21T15:50:20.984Z,22.50
2023-05-21T15:52:48.531Z,22.70
2023-05-21T15:55:16.595Z,22.70
2023-05-21T15:57:43.654Z,22.70
2023-05-21T16:00:11.440Z,22.60
2023-05-21T16:02:38.608Z,22.60
2023-05-21T16:05:05.974Z,22.70
2023-05-21T16:07:33.325Z,22.60
2023-05-21T16:10:01.380Z,22.60
2023-05-21T16:12:28.329Z,22.70
2023-05-21T16:14:55.512Z,22.50
2023-05-21T16:17:22.651Z,22.40
2023-05-21T16:19:49.510Z,22.30
2023-05-21T16:22:16.556Z,22.30
2023-05-21T16:24:43.463Z,22.30
2023-05-21T16:27:10.426Z,22.20
2023-05-21T16:29:40.070Z,22.00
2023-05-21T16:32:08.166Z,22.10
2023-05-21T16:34:36.004Z,22.10
2023-05-21T16:37:03.056Z,22.10
2023-05-21T16:39:30.109Z,21.90
2023-05-21T16:41:59.655Z,21.60
2023-05-21T16:44:27.434Z,21.80
2023-05-21T16:46:54.460Z,21.80
2023-05-21T16:49:21.426Z,21.70
2023-05-21T16:51:48.359Z,21.60
2023-05-21T16:54:15.416Z,21.50
2023-05-21T16:56:42.416Z,21.50
2023-05-21T16:59:09.456Z,21.40
2023-05-21T17:01:36.625Z,21.30
2023-05-21T17:04:04.025Z,21.20
2023-05-21T17:06:31.696Z,21.10
2023-05-21T17:08:58.720Z,21.00
2023-05-21T17:11:25.762Z,20.90
2023-05-21T17:13:52.717Z,20.90
2023-05-21T17:16:19.670Z,20.80
2023-05-21T17:18:46.681Z,20.80
2023-05-21T17:21:13.981Z,20.60
2023-05-21T17:23:42.882Z,20.60
2023-05-21T17:26:11.118Z,20.50
2023-05-21T17:28:38.095Z,20.40
2023-05-21T17:31:07.093Z,20.40
2023-05-21T17:33:34.401Z,20.40
2023-05-21T17:36:02.108Z,20.40
2023-05-21T17:38:28.992Z,20.30
2023-05-21T17:40:56.396Z,20.20
2023-05-21T17:43:23.258Z,20.20
2023-05-21T17:45:50.190Z,20.10
2023-05-21T17:48:17.142Z,20.00
2023-05-21T17:50:47.049Z,20.00
2023-05-21T17:53:14.978Z,19.90
2023-05-21T17:55:41.984Z,20.00
2023-05-21T17:58:10.086Z,20.10
2023-05-21T18:00:37.243Z,19.90
2023-05-21T18:03:04.700Z,19.80
2023-05-21T18:05:31.789Z,19.60
2023-05-21T18:08:01.163Z,19.60
2023-05-21T18:10:28.385Z,19.50
2023-05-21T18:12:55.407Z,19.50
2023-05-21T18:15:22.410Z,19.40
2023-05-21T18:17:49.398Z,19.30
2023-05-21T18:20:17.615Z,19.30
2023-05-21T18:22:45.019Z,19.30
2023-05-21T18:25:11.958Z,19.20
2023-05-21T18:27:38.981Z,19.30
2023-05-21T18:30:07.009Z,19.10
2023-05-21T18:32:34.671Z,19.00
2023-05-21T18:35:02.389Z,18.90
2023-05-21T18:37:29.529Z,18.90
2023-05-21T18:39:56.814Z,18.80
2023-05-21T18:42:24.126Z,18.70
2023-05-21T18:44:51.763Z,18.70
2023-05-21T18:47:18.704Z,18.70
2023-05-21T18:49:45.743Z,18.70
2023-05-21T18:52:12.757Z,18.60
2023-05-21T18:54:39.691Z,18.60
2023-05-21T18:57:06.720Z,18.50
2023-05-21T18:59:33.748Z,18.60
2023-05-21T19:02:00.767Z,18.60
2023-05-21T19:04:27.956Z,18.50
2023-05-21T19:06:55.033Z,18.40
2023-05-21T19:09:22.012Z,18.30
2023-05-21T19:11:49.374Z,18.20
2023-05-21T19:14:16.446Z,18.20
2023-05-21T19:16:43.456Z,18.10
2023-05-21T19:19:10.545Z,18.10
2023-05-21T19:21:37.596Z,18.00
2023-05-21T19:24:05.961Z,18.00
2023-05-21T19:26:33.560Z,18.00
2023-05-21T19:29:00.759Z,18.00
2023-05-21T19:31:27.705Z,17.90
2023-05-21T19:33:55.310Z,17.90
2023-05-21T19:36:22.380Z,17.90
2023-05-21T19:38:50.474Z,17.90
2023-05-21T19:41:19.214Z,17.80
2023-05-21T19:43:46.403Z,17.70
2023-05-21T19:46:17.130Z,17.60
2023-05-21T19:48:45.175Z,17.60
2023-05-21T19:51:12.190Z,17.50
2023-05-21T19:53:39.222Z,17.50
2023-05-21T19:56:06.287Z,17.50
2023-05-21T19:58:33.756Z,17.50
2023-05-21T20:01:00.953Z,17.40
2023-05-21T20:03:32.084Z,17.30
2023-05-21T20:05:59.156Z,17.30
2023-05-21T20:08:26.033Z,17.30
2023-05-21T20:10:53.177Z,17.20
2023-05-21T20:13:21.865Z,17.30
2023-05-21T20:15:49.882Z,17.30
2023-05-21T20:18:17.223Z,17.20
2023-05-21T20:20:44.193Z,17.20
2023-05-21T20:23:11.166Z,17.10
2023-05-21T20:25:38.663Z,17.10
2023-05-21T20:28:05.991Z,17.00
2023-05-21T20:30:34.535Z,17.00
2023-05-21T20:33:04.544Z,17.00
2023-05-21T20:35:31.526Z,17.00
2023-05-21T20:37:58.460Z,17.00
2023-05-21T20:40:25.318Z,17.00
2023-05-21T20:42:54.097Z,17.00
2023-05-21T20:45:21.981Z,17.00
2023-05-21T20:47:49.900Z,17.10
2023-05-21T20:50:25.783Z,17.10
2023-05-21T20:52:52.727Z,17.10
2023-05-21T20:55:20.882Z,17.10
2023-05-21T20:57:47.824Z,17.00
2023-05-21T21:00:16.081Z,17.00
2023-05-21T21:02:43.805Z,16.90
2023-05-21T21:05:11.616Z,16.90
2023-05-21T21:07:39.179Z,16.90
2023-05-21T21:10:06.727Z,17.00
2023-05-21T21:12:33.645Z,17.10
2023-05-21T21:15:00.709Z,17.10
2023-05-21T21:17:27.771Z,17.00
2023-05-21T21:19:54.862Z,17.10
2023-05-21T21:22:21.933Z,17.00
2023-05-21T21:24:49.008Z,17.10
2023-05-21T21:27:15.921Z,16.90
2023-05-21T21:29:42.941Z,16.90
2023-05-21T21:32:09.872Z,16.90
2023-05-21T21:34:37.120Z,16.90
2023-05-21T21:37:04.591Z,17.00
2023-05-21T21:39:31.554Z,17.00
2023-05-21T21:41:58.628Z,17.00
2023-05-21T21:44:25.669Z,16.80
2023-05-21T21:46:52.523Z,16.90
2023-05-21T21:49:19.487Z,16.90
2023-05-21T21:51:46.417Z,16.90
2023-05-21T21:54:15.956Z,16.80
2023-05-21T21:56:42.894Z,16.80
2023-05-21T21:59:09.774Z,16.80
2023-05-21T22:01:37.087Z,16.70
2023-05-21T22:04:04.206Z,16.70
2023-05-21T22:06:31.354Z,16.70
2023-05-21T22:08:58.323Z,16.80
2023-05-21T22:11:27.042Z,16.70
2023-05-21T22:13:54.217Z,16.70
2023-05-21T22:16:21.150Z,16.70
2023-05-21T22:18:50.162Z,16.70
2023-05-21T22:21:18.436Z,16.70
2023-05-21T22:23:45.502Z,16.60
2023-05-21T22:26:12.445Z,16.60
2023-05-21T22:28:39.444Z,16.50
2023-05-21T22:31:06.451Z,16.60
2023-05-21T22:33:33.438Z,16.60
2023-05-21T22:36:00.513Z,16.60
2023-05-21T22:38:27.543Z,16.70
2023-05-21T22:40:54.629Z,16.60
2023-05-21T22:43:21.537Z,16.60
2023-05-21T22:45:48.434Z,16.60
2023-05-21T22:48:18.183Z,16.50
2023-05-21T22:50:46.435Z,16.50
2023-05-21T22:53:13.520Z,16.50
2023-05-21T22:55:40.547Z,16.40
2023-05-21T22:58:07.436Z,16.30
2023-05-21T23:00:34.412Z,16.30
2023-05-21T23:03:01.453Z,16.20
2023-05-21T23:05:28.386Z,16.20
2023-05-21T23:07:55.385Z,16.20
2023-05-21T23:10:22.372Z,16.10
2023-05-21T23:12:49.229Z,16.00
2023-05-21T23:15:16.466Z,16.10
2023-05-21T23:17:43.464Z,16.00
2023-05-21T23:20:10.609Z,16.00
2023-05-21T23:22:37.598Z,15.90
2023-05-21T23:25:05.011Z,15.90
2023-05-21T23:27:31.910Z,15.80
2023-05-21T23:29:58.820Z,15.80
2023-05-21T23:32:25.931Z,15.70
2023-05-21T23:34:52.977Z,15.70
2023-05-21T23:37:19.906Z,15.70
2023-05-21T23:39:49.638Z,15.60
2023-05-21T23:42:17.531Z,15.70
2023-05-21T23:44:44.613Z,15.60
2023-05-21T23:47:11.666Z,15.70
2023-05-21T23:49:39.468Z,15.60
2023-05-21T23:52:07.009Z,15.60
2023-05-21T23:54:34.012Z,15.40
2023-05-21T23:57:02.190Z,15.40
2023-05-21T23:59:29.279Z,15.40
